Time;durP1;ratioP1;P1;durP2;ratioP2;P2;SDS_P1;SDS_P2;PMS_P1;PMS_P2;Temp;Humidity;BMP_temperature;BMP_pressure;BME280_temperature;BME280_humidity;BME280_pressure;Samples;Min_cycle;Max_cycle;Signal;HPM_P1;HPM_P2
2023/11/09 00:01:09;;;;;;;13.43;8.20;;;21.90;93.00;;;;;;5023207;28;20485;-62
2023/11/09 00:03:36;;;;;;;12.27;8.33;;;21.90;93.10;;;;;;5024958;28;20493;-63
2023/11/09 00:06:03;;;;;;;11.93;7.93;;;21.90;93.10;;;;;;5026819;28;20461;-63
2023/11/09 00:08:30;;;;;;;13.43;9.13;;;21.90;93.10;;;;;;5027091;28;20974;-59
2023/11/09 00:10:57;;;;;;;9.93;7.33;;;21.80;93.10;;;;;;5025901;28;24362;-63
2023/11/09 00:13:25;;;;;;;11.63;8.90;;;21.80;93.10;;;;;;5026240;28;20825;-60
2023/11/09 00:15:51;;;;;;;10.10;7.17;;;21.80;93.10;;;;;;5023976;28;20466;-63
2023/11/09 00:18:22;;;;;;;14.53;8.67;;;21.80;93.10;;;;;;5024598;28;21367;-61
2023/11/09 00:20:49;;;;;;;15.87;8.20;;;21.80;93.10;;;;;;5022635;28;20573;-63
2023/11/09 00:23:16;;;;;;;11.70;7.50;;;21.80;93.20;;;;;;5025227;28;20493;-62
2023/11/09 00:25:42;;;;;;;10.47;7.83;;;21.80;93.20;;;;;;5024740;28;20463;-62
2023/11/09 00:28:09;;;;;;;12.20;7.30;;;21.70;93.20;;;;;;5022985;28;20456;-58
2023/11/09 00:30:37;;;;;;;10.60;7.80;;;21.70;93.20;;;;;;5018756;28;20457;-59
2023/11/09 00:33:04;;;;;;;14.30;7.70;;;21.70;93.20;;;;;;5019704;28;20788;-64
2023/11/09 00:35:31;;;;;;;11.93;7.80;;;21.70;93.20;;;;;;5023889;28;20464;-62
2023/11/09 00:37:59;;;;;;;11.47;8.17;;;21.70;93.30;;;;;;5023597;28;20457;-61
2023/11/09 00:40:26;;;;;;;9.57;7.27;;;21.70;93.30;;;;;;5025787;28;20953;-62
2023/11/09 00:42:53;;;;;;;11.23;7.17;;;21.70;93.30;;;;;;5024382;28;20894;-59
2023/11/09 00:45:20;;;;;;;13.97;7.50;;;21.60;93.30;;;;;;5024946;28;20981;-63
2023/11/09 00:47:49;;;;;;;11.37;7.30;;;21.60;93.30;;;;;;5022533;28;20469;-61
2023/11/09 00:50:16;;;;;;;9.90;6.70;;;21.60;93.30;;;;;;5024626;28;20473;-63
2023/11/09 00:52:43;;;;;;;10.33;6.70;;;21.60;93.30;;;;;;5023364;28;20816;-61
2023/11/09 00:55:10;;;;;;;8.83;6.60;;;21.60;93.30;;;;;;5024260;28;20454;-60
2023/11/09 00:57:37;;;;;;;11.03;7.57;;;21.60;93.30;;;;;;5023770;28;20462;-59
2023/11/09 01:00:04;;;;;;;11.00;7.00;;;21.60;93.40;;;;;;5024295;28;20485;-63
2023/11/09 01:02:37;;;;;;;8.47;6.27;;;21.50;93.30;;;;;;5024476;28;20887;-59
2023/11/09 01:05:06;;;;;;;11.13;7.37;;;21.50;93.40;;;;;;5024523;28;21056;-64
2023/11/09 01:07:33;;;;;;;8.73;6.83;;;21.50;93.40;;;;;;5024893;28;20548;-60
2023/11/09 01:10:00;;;;;;;8.97;5.97;;;21.50;93.40;;;;;;5020585;28;20457;-61
2023/11/09 01:12:27;;;;;;;10.10;8.20;;;21.50;93.40;;;;;;5025034;28;21003;-63
2023/11/09 01:14:54;;;;;;;8.00;6.60;;;21.50;93.40;;;;;;5023269;28;20466;-63
2023/11/09 01:17:20;;;;;;;10.43;6.73;;;21.50;93.40;;;;;;5023610;28;20592;-64
2023/11/09 01:19:47;;;;;;;7.07;6.37;;;21.50;93.40;;;;;;5025028;28;20476;-61
2023/11/09 01:22:16;;;;;;;8.47;6.33;;;21.50;93.40;;;;;;5024058;28;20461;-63
2023/11/09 01:24:42;;;;;;;9.07;5.80;;;21.40;93.40;;;;;;5023183;28;21031;-62
2023/11/09 01:27:09;;;;;;;7.80;6.00;;;21.40;93.40;;;;;;5026398;28;20965;-60
2023/11/09 01:29:36;;;;;;;10.07;7.27;;;21.40;93.40;;;;;;5021261;28;20993;-61
2023/11/09 01:32:03;;;;;;;10.07;6.53;;;21.40;93.40;;;;;;5024967;28;20489;-63
2023/11/09 01:34:29;;;;;;;8.77;6.90;;;21.40;93.40;;;;;;5023472;28;20469;-63
2023/11/09 01:36:57;;;;;;;9.50;6.00;;;21.40;93.50;;;;;;5024724;28;20457;-64
2023/11/09 01:39:25;;;;;;;7.10;5.75;;;21.40;93.50;;;;;;5023271;28;20582;-60
2023/11/09 01:41:51;;;;;;;8.77;6.30;;;21.40;93.50;;;;;;5020912;28;20201;-60
2023/11/09 01:44:18;;;;;;;9.97;6.60;;;21.40;93.50;;;;;;5017176;28;21112;-63
2023/11/09 01:46:46;;;;;;;9.70;6.33;;;21.30;93.50;;;;;;5024223;28;20468;-63
2023/11/09 01:49:14;;;;;;;10.07;6.10;;;21.30;93.70;;;;;;5023394;28;20451;-61
2023/11/09 01:51:44;;;;;;;10.27;7.00;;;21.30;93.70;;;;;;5020007;28;20470;-59
2023/11/09 01:54:12;;;;;;;9.10;5.97;;;21.30;93.70;;;;;;5029602;28;20540;-61
2023/11/09 01:56:41;;;;;;;9.30;6.07;;;21.30;93.80;;;;;;5027288;28;20466;-63
2023/11/09 01:59:09;;;;;;;7.03;5.33;;;21.30;93.70;;;;;;5031850;28;20461;-62
2023/11/09 02:01:37;;;;;;;9.57;6.20;;;21.30;93.70;;;;;;5028898;28;20468;-61
2023/11/09 02:04:04;;;;;;;7.60;5.83;;;21.30;93.80;;;;;;5031497;28;20488;-63
2023/11/09 02:06:34;;;;;;;8.10;5.47;;;21.30;93.80;;;;;;5026582;28;21048;-63
2023/11/09 02:09:02;;;;;;;6.03;5.00;;;21.20;93.70;;;;;;5027198;28;20588;-63
2023/11/09 02:11:28;;;;;;;7.50;5.23;;;21.30;93.80;;;;;;5030211;28;20462;-60
2023/11/09 02:13:57;;;;;;;7.83;6.13;;;21.20;93.80;;;;;;5025457;28;20857;-62
2023/11/09 02:16:23;;;;;;;8.17;6.43;;;21.20;94.10;;;;;;5023449;28;20473;-59
2023/11/09 02:18:50;;;;;;;6.17;5.20;;;21.20;93.80;;;;;;5022807;28;20566;-61
2023/11/09 02:21:19;;;;;;;9.83;6.43;;;21.20;93.80;;;;;;5025730;28;20465;-61
2023/11/09 02:23:49;;;;;;;10.48;6.20;;;21.20;93.90;;;;;;5022768;28;20458;-59
2023/11/09 02:26:17;;;;;;;7.90;6.00;;;21.20;93.90;;;;;;5026393;28;20513;-63
2023/11/09 02:28:46;;;;;;;6.28;5.40;;;21.20;93.90;;;;;;5022407;28;20474;-61
2023/11/09 02:31:13;;;;;;;7.30;5.43;;;21.10;93.80;;;;;;5023748;28;20184;-63
2023/11/09 02:33:40;;;;;;;6.20;4.70;;;21.10;93.80;;;;;;5024733;28;20457;-60
2023/11/09 02:36:07;;;;;;;7.30;5.10;;;21.10;93.80;;;;;;5023105;28;20463;-58
2023/11/09 02:38:34;;;;;;;6.28;5.35;;;21.10;93.80;;;;;;5024250;28;20462;-63
2023/11/09 02:41:01;;;;;;;6.68;5.45;;;21.10;93.80;;;;;;5023771;28;20290;-63
2023/11/09 02:43:30;;;;;;;6.30;4.63;;;21.10;93.80;;;;;;5017259;28;20225;-61
2023/11/09 02:45:58;;;;;;;7.30;5.47;;;21.10;93.80;;;;;;5025249;28;20226;-58
2023/11/09 02:48:24;;;;;;;7.97;5.50;;;21.10;93.80;;;;;;5022079;28;20597;-61
2023/11/09 02:50:51;;;;;;;6.43;5.15;;;21.10;93.90;;;;;;5022936;28;20470;-60
2023/11/09 02:53:18;;;;;;;6.90;4.80;;;21.10;93.90;;;;;;5025420;28;20207;-58
2023/11/09 02:55:45;;;;;;;4.40;4.00;;;21.10;93.90;;;;;;5024619;28;20474;-59
2023/11/09 02:58:11;;;;;;;6.97;5.30;;;21.10;93.90;;;;;;5025452;28;20195;-62
2023/11/09 03:00:39;;;;;;;8.95;5.35;;;21.00;93.80;;;;;;5019483;28;20509;-59
2023/11/09 03:03:06;;;;;;;7.30;4.90;;;21.00;93.80;;;;;;5026037;28;20188;-63
2023/11/09 03:05:33;;;;;;;9.10;5.35;;;21.00;93.80;;;;;;5024443;28;20487;-61
2023/11/09 03:08:00;;;;;;;7.67;5.70;;;21.00;93.90;;;;;;5024618;28;20412;-63
2023/11/09 03:10:26;;;;;;;5.80;4.60;;;21.00;94.20;;;;;;5030720;28;20458;-60
2023/11/09 03:12:54;;;;;;;6.83;4.40;;;21.00;93.90;;;;;;5027868;28;20830;-63
2023/11/09 03:15:22;;;;;;;9.65;6.07;;;21.00;93.90;;;;;;5023495;28;20961;-60
2023/11/09 03:17:50;;;;;;;6.40;5.50;;;21.00;93.90;;;;;;5028193;28;20211;-60
2023/11/09 03:20:17;;;;;;;8.10;5.40;;;21.00;93.90;;;;;;5025818;28;21075;-63
2023/11/09 03:22:45;;;;;;;5.82;4.88;;;21.00;93.90;;;;;;5028906;28;20199;-63
2023/11/09 03:25:12;;;;;;;7.97;5.03;;;21.00;93.90;;;;;;5022237;28;20219;-63
2023/11/09 03:27:40;;;;;;;8.45;5.57;;;20.90;93.90;;;;;;5026433;28;20578;-60
2023/11/09 03:30:08;;;;;;;5.87;4.83;;;21.00;94.00;;;;;;5026693;28;20671;-62
2023/11/09 03:32:35;;;;;;;4.90;3.93;;;20.90;94.00;;;;;;5027558;28;20466;-60
2023/11/09 03:35:04;;;;;;;6.33;5.27;;;20.90;94.00;;;;;;5024249;28;20458;-60
2023/11/09 03:37:30;;;;;;;6.20;4.40;;;20.90;94.00;;;;;;5023590;28;20489;-63
2023/11/09 03:39:57;;;;;;;5.18;4.30;;;20.90;94.10;;;;;;5022515;28;20211;-62
2023/11/09 03:42:24;;;;;;;4.73;3.70;;;20.90;94.10;;;;;;5018780;28;20192;-63
2023/11/09 03:44:51;;;;;;;5.43;4.20;;;20.90;94.10;;;;;;5020517;28;20477;-63
2023/11/09 03:47:18;;;;;;;5.23;4.50;;;20.90;94.10;;;;;;5020560;28;20194;-62
2023/11/09 03:49:45;;;;;;;4.60;3.85;;;20.90;94.10;;;;;;5025497;28;20974;-61
2023/11/09 03:52:13;;;;;;;6.60;4.88;;;20.90;94.20;;;;;;5027132;28;20191;-60
2023/11/09 03:54:39;;;;;;;5.90;4.07;;;20.90;94.20;;;;;;5031843;28;20211;-63
2023/11/09 03:57:07;;;;;;;6.47;5.17;;;20.90;94.10;;;;;;5033637;28;20197;-62
2023/11/09 03:59:34;;;;;;;4.63;3.77;;;20.80;94.10;;;;;;5031571;28;20844;-62
2023/11/09 04:02:01;;;;;;;5.80;4.70;;;20.90;94.20;;;;;;5030626;28;20473;-60
2023/11/09 04:04:28;;;;;;;6.90;4.40;;;20.80;94.10;;;;;;5031276;28;20694;-63
2023/11/09 04:06:55;;;;;;;5.23;4.23;;;20.80;94.10;;;;;;5029575;28;20663;-60
2023/11/09 04:09:24;;;;;;;6.22;4.35;;;20.80;94.10;;;;;;5029751;28;20463;-63
2023/11/09 04:11:51;;;;;;;7.47;5.03;;;20.80;94.10;;;;;;5031143;28;20237;-60
2023/11/09 04:14:17;;;;;;;5.00;3.90;;;20.80;94.10;;;;;;5026002;28;20200;-62
2023/11/09 04:16:44;;;;;;;6.33;4.47;;;20.80;94.20;;;;;;5025518;28;20534;-63
2023/11/09 04:19:11;;;;;;;4.10;3.70;;;20.80;94.20;;;;;;5025287;28;21108;-62
2023/11/09 04:21:38;;;;;;;5.80;4.40;;;20.80;94.10;;;;;;5028521;28;20193;-60
2023/11/09 04:24:06;;;;;;;6.72;4.50;;;20.80;94.20;;;;;;5022825;28;20202;-61
2023/11/09 04:26:34;;;;;;;5.43;4.28;;;20.80;94.10;;;;;;5024547;28;21013;-63
2023/11/09 04:29:01;;;;;;;5.97;3.92;;;20.80;94.10;;;;;;5025624;28;20618;-60
2023/11/09 04:31:30;;;;;;;7.00;4.05;;;20.80;94.20;;;;;;5026621;28;20196;-62
2023/11/09 04:34:03;;;;;;;6.18;4.20;;;20.80;94.10;;;;;;5027372;28;20656;-63
2023/11/09 04:36:31;;;;;;;5.00;4.50;;;20.80;94.20;;;;;;5027254;28;20532;-60
2023/11/09 04:38:58;;;;;;;5.68;4.32;;;20.80;94.20;;;;;;5028071;28;20659;-60
2023/11/09 04:41:25;;;;;;;7.38;4.90;;;20.70;94.10;;;;;;5025253;28;20195;-58
2023/11/09 04:43:55;;;;;;;4.65;3.90;;;20.70;94.10;;;;;;5028005;28;20726;-63
2023/11/09 04:46:23;;;;;;;5.95;3.75;;;20.70;94.20;;;;;;5027418;28;20219;-64
2023/11/09 04:48:55;;;;;;;5.30;4.45;;;20.70;94.10;;;;;;5025983;28;20286;-59
2023/11/09 04:51:30;;;;;;;5.10;3.90;;;20.70;94.20;;;;;;5023581;28;20195;-63
2023/11/09 04:54:03;;;;;;;5.00;4.28;;;20.70;94.20;;;;;;5024489;28;20206;-63
2023/11/09 04:56:39;;;;;;;4.63;3.80;;;20.70;94.20;;;;;;5026729;28;20202;-62
2023/11/09 05:07:21;;;;;;;4.15;3.53;;;20.70;94.20;;;;;;5025771;28;20226;-61
2023/11/09 05:09:48;;;;;;;5.32;4.30;;;20.70;94.30;;;;;;5024461;28;20202;-60
2023/11/09 05:12:15;;;;;;;6.20;3.97;;;20.70;94.20;;;;;;5025628;28;20667;-61
2023/11/09 05:14:43;;;;;;;3.95;3.55;;;20.70;94.20;;;;;;5022641;28;20218;-60
2023/11/09 05:17:13;;;;;;;4.78;3.05;;;20.70;94.20;;;;;;5019497;28;20215;-62
2023/11/09 05:19:41;;;;;;;4.15;3.20;;;20.70;94.20;;;;;;5026814;28;20199;-60
2023/11/09 05:22:08;;;;;;;3.78;3.47;;;20.70;94.20;;;;;;5020297;28;20200;-60
2023/11/09 05:24:36;;;;;;;4.95;3.90;;;20.60;94.20;;;;;;5021902;28;20194;-60
2023/11/09 05:27:02;;;;;;;3.80;3.33;;;20.60;94.20;;;;;;5021896;28;20206;-60
2023/11/09 05:29:30;;;;;;;4.60;3.17;;;20.60;94.20;;;;;;5020204;28;20203;-59
2023/11/09 05:31:59;;;;;;;6.03;3.83;;;20.60;94.20;;;;;;5020094;28;20195;-61
2023/11/09 05:34:26;;;;;;;4.63;3.30;;;20.60;94.20;;;;;;5023506;28;20206;-61
2023/11/09 05:36:54;;;;;;;4.97;3.65;;;20.60;94.20;;;;;;5025925;28;20294;-59
2023/11/09 05:39:23;;;;;;;3.20;2.90;;;20.60;94.20;;;;;;5018547;28;20581;-61
2023/11/09 05:41:51;;;;;;;4.45;3.55;;;20.60;94.20;;;;;;5017899;28;20644;-60
2023/11/09 05:44:18;;;;;;;3.65;3.35;;;20.60;94.20;;;;;;5022994;28;20191;-58
2023/11/09 05:46:44;;;;;;;4.13;3.08;;;20.60;94.10;;;;;;5019952;28;20242;-60
2023/11/09 05:49:13;;;;;;;4.43;3.30;;;20.60;94.20;;;;;;5025750;28;20438;-58
2023/11/09 05:51:41;;;;;;;4.40;3.53;;;20.60;94.30;;;;;;5021160;28;20211;-59
2023/11/09 05:54:08;;;;;;;3.95;3.38;;;20.60;94.40;;;;;;5019559;28;20222;-63
2023/11/09 05:56:35;;;;;;;4.30;3.80;;;20.60;94.50;;;;;;5019291;28;20203;-64
2023/11/09 05:59:02;;;;;;;3.75;3.33;;;20.60;94.60;;;;;;5017566;28;20196;-59
2023/11/09 06:01:30;;;;;;;3.63;3.10;;;20.60;94.60;;;;;;5021887;28;20206;-61
2023/11/09 06:03:57;;;;;;;3.75;3.28;;;20.60;94.70;;;;;;5023932;28;20282;-61
2023/11/09 06:06:25;;;;;;;4.43;3.50;;;20.60;94.70;;;;;;5026215;28;20215;-59
2023/11/09 06:08:52;;;;;;;4.70;3.90;;;20.60;94.70;;;;;;5029987;28;20540;-69
2023/11/09 06:11:19;;;;;;;3.88;3.30;;;20.60;94.80;;;;;;5030332;28;20200;-67
2023/11/09 06:13:46;;;;;;;4.00;3.17;;;20.60;94.90;;;;;;5025951;28;20583;-69
2023/11/09 06:16:13;;;;;;;4.95;3.10;;;20.60;94.90;;;;;;5028685;28;20470;-66
2023/11/09 06:18:39;;;;;;;4.65;3.20;;;20.60;94.90;;;;;;5025960;28;20200;-75
2023/11/09 06:21:06;;;;;;;4.00;3.03;;;20.60;95.20;;;;;;5028392;28;20195;-72
2023/11/09 06:23:34;;;;;;;3.25;2.95;;;20.60;94.90;;;;;;5027403;28;20863;-76
2023/11/09 06:26:01;;;;;;;4.10;2.97;;;20.70;95.20;;;;;;5025772;28;20313;-73
2023/11/09 06:28:28;;;;;;;3.05;2.70;;;20.70;95.30;;;;;;5027777;28;20213;-67
2023/11/09 06:30:54;;;;;;;4.30;3.10;;;20.70;95.30;;;;;;5023145;28;20235;-66
2023/11/09 06:33:21;;;;;;;5.15;3.42;;;20.70;95.40;;;;;;5026324;28;20701;-69
2023/11/09 06:35:48;;;;;;;3.80;2.80;;;20.70;95.40;;;;;;5028056;28;20195;-63
2023/11/09 06:38:19;;;;;;;3.88;3.17;;;20.70;95.40;;;;;;5029526;28;20461;-62
2023/11/09 06:40:48;;;;;;;3.90;3.30;;;20.70;95.40;;;;;;5028651;28;20742;-69
2023/11/09 06:43:15;;;;;;;3.45;2.97;;;20.70;95.50;;;;;;5032715;28;20203;-65
2023/11/09 06:45:42;;;;;;;4.43;3.55;;;20.70;95.60;;;;;;5031166;28;20217;-68
2023/11/09 06:48:09;;;;;;;3.20;2.63;;;20.70;95.60;;;;;;5031067;28;20227;-67
2023/11/09 06:50:37;;;;;;;3.37;2.83;;;20.70;95.60;;;;;;5031757;28;20471;-62
2023/11/09 06:53:04;;;;;;;3.43;2.60;;;20.80;95.60;;;;;;5028207;28;20460;-63
2023/11/09 06:55:30;;;;;;;10.70;3.37;;;20.80;95.70;;;;;;5020567;28;20461;-62
2023/11/09 06:57:59;;;;;;;2.60;2.40;;;20.80;95.60;;;;;;5029402;28;20550;-63
2023/11/09 07:00:26;;;;;;;4.65;3.70;;;20.80;95.70;;;;;;5027891;28;20966;-66
2023/11/09 07:02:54;;;;;;;5.33;4.57;;;20.80;95.80;;;;;;5026662;28;20198;-63
2023/11/09 07:05:22;;;;;;;3.72;3.42;;;20.80;95.10;;;;;;5024589;28;20478;-65
2023/11/09 07:07:50;;;;;;;4.15;3.60;;;20.80;95.00;;;;;;5024228;28;20594;-63
2023/11/09 07:10:18;;;;;;;4.27;3.40;;;20.80;95.00;;;;;;5029138;28;20197;-66
2023/11/09 07:12:44;;;;;;;3.80;2.80;;;20.80;95.00;;;;;;5025881;28;20466;-64
2023/11/09 07:15:13;;;;;;;3.63;2.70;;;20.80;95.00;;;;;;5028008;28;20473;-67
2023/11/09 07:17:39;;;;;;;5.70;3.23;;;20.80;95.00;;;;;;5027406;28;20498;-62
2023/11/09 07:20:09;;;;;;;5.33;3.40;;;20.80;94.90;;;;;;5028120;28;20729;-66
2023/11/09 07:22:37;;;;;;;4.22;3.22;;;20.80;94.90;;;;;;5027046;28;20494;-64
2023/11/09 07:25:04;;;;;;;4.07;3.10;;;20.80;94.90;;;;;;5025526;28;20206;-63
2023/11/09 07:27:31;;;;;;;5.88;3.42;;;20.80;94.90;;;;;;5027374;28;20457;-66
2023/11/09 07:29:58;;;;;;;3.40;2.97;;;20.80;95.00;;;;;;5025835;28;20199;-66
2023/11/09 07:32:28;;;;;;;5.40;3.33;;;20.80;95.00;;;;;;5027874;28;20485;-63
2023/11/09 07:34:55;;;;;;;3.85;2.75;;;20.80;94.90;;;;;;5026615;28;20233;-63
2023/11/09 07:37:22;;;;;;;7.13;3.30;;;20.90;95.00;;;;;;5023703;28;20203;-59
2023/11/09 07:39:48;;;;;;;3.72;3.40;;;20.90;95.00;;;;;;5022550;28;20962;-63
2023/11/09 07:42:15;;;;;;;5.22;3.33;;;20.90;95.10;;;;;;5027009;28;20207;-61
2023/11/09 07:44:42;;;;;;;6.20;2.85;;;20.90;95.10;;;;;;5026359;28;20197;-59
2023/11/09 07:47:09;;;;;;;3.40;2.90;;;20.90;95.00;;;;;;5020608;28;20556;-59
2023/11/09 07:49:37;;;;;;;3.17;2.27;;;21.00;95.10;;;;;;5022407;28;20845;-63
2023/11/09 07:52:05;;;;;;;3.57;2.70;;;21.00;95.10;;;;;;5022198;28;20466;-61
2023/11/09 07:54:32;;;;;;;5.80;3.33;;;21.00;95.10;;;;;;5023880;28;20977;-59
2023/11/09 07:57:01;;;;;;;4.87;3.60;;;21.00;95.10;;;;;;5024639;28;20958;-61
2023/11/09 07:59:28;;;;;;;6.37;3.07;;;21.00;95.10;;;;;;5029218;28;20461;-61
2023/11/09 08:01:55;;;;;;;4.50;3.30;;;21.00;95.10;;;;;;5020040;28;20469;-60
2023/11/09 08:04:24;;;;;;;3.33;2.50;;;21.00;95.00;;;;;;5024742;28;22061;-67
2023/11/09 08:06:52;;;;;;;4.70;3.00;;;21.00;95.00;;;;;;5028015;28;20466;-67
2023/11/09 08:09:19;;;;;;;4.27;3.57;;;21.00;95.00;;;;;;5025324;28;20469;-65
2023/11/09 08:11:47;;;;;;;4.57;3.20;;;21.00;95.00;;;;;;5029815;28;20961;-67
2023/11/09 08:14:13;;;;;;;7.97;2.83;;;21.00;95.00;;;;;;5030336;28;20559;-66
2023/11/09 08:16:41;;;;;;;5.33;3.07;;;21.00;95.00;;;;;;5026615;28;20467;-62
2023/11/09 08:19:08;;;;;;;3.00;2.70;;;21.00;95.10;;;;;;5024453;28;20504;-63
2023/11/09 08:21:36;;;;;;;3.30;2.50;;;21.00;95.10;;;;;;5027564;28;20466;-63
2023/11/09 08:24:04;;;;;;;3.00;2.50;;;21.10;95.50;;;;;;5026567;28;20462;-68
2023/11/09 08:26:32;;;;;;;6.80;2.87;;;21.10;95.00;;;;;;5019805;28;20481;-67
2023/11/09 08:28:59;;;;;;;4.80;2.70;;;21.10;94.90;;;;;;5025630;28;20459;-65
2023/11/09 08:31:26;;;;;;;7.23;2.30;;;21.10;95.00;;;;;;5025357;28;20468;-66
2023/11/09 08:33:54;;;;;;;4.17;2.30;;;21.10;94.90;;;;;;5027838;28;20452;-67
2023/11/09 08:36:21;;;;;;;2.63;2.13;;;21.10;94.50;;;;;;5025409;28;20468;-65
2023/11/09 08:38:48;;;;;;;3.07;2.53;;;21.00;94.00;;;;;;5027228;28;20937;-64
2023/11/09 08:41:16;;;;;;;3.17;2.07;;;21.00;94.00;;;;;;5029510;28;20472;-68
2023/11/09 08:43:44;;;;;;;2.50;2.30;;;21.00;93.90;;;;;;5030514;28;20465;-67
2023/11/09 08:46:11;;;;;;;7.80;2.73;;;21.00;94.10;;;;;;5027382;28;20556;-67
2023/11/09 08:48:40;;;;;;;2.73;2.23;;;21.10;94.20;;;;;;5025545;28;20464;-62
2023/11/09 08:51:11;;;;;;;2.80;2.20;;;21.10;94.10;;;;;;5027619;28;20477;-62
2023/11/09 08:53:38;;;;;;;3.10;2.10;;;21.10;94.10;;;;;;5028349;28;20488;-61
2023/11/09 08:56:06;;;;;;;2.67;2.10;;;21.20;94.10;;;;;;5026128;28;20476;-62
2023/11/09 08:58:36;;;;;;;2.53;2.27;;;21.10;94.10;;;;;;5025713;28;20470;-62
2023/11/09 09:01:16;;;;;;;3.00;2.03;;;21.20;94.10;;;;;;5024100;28;20569;-61
2023/11/09 09:03:43;;;;;;;4.20;2.70;;;21.20;94.10;;;;;;5025232;28;20453;-62
2023/11/09 09:06:11;;;;;;;3.90;2.70;;;21.20;94.10;;;;;;5024545;28;20473;-61
2023/11/09 09:08:38;;;;;;;3.20;2.30;;;21.20;94.00;;;;;;5024918;28;21026;-62
2023/11/09 09:11:05;;;;;;;2.97;2.40;;;21.20;94.00;;;;;;5026066;28;20466;-61
2023/11/09 09:13:34;;;;;;;4.17;2.20;;;21.20;94.00;;;;;;5021986;28;20473;-62
2023/11/09 09:16:00;;;;;;;4.20;2.13;;;21.20;94.10;;;;;;5022958;28;20552;-60
2023/11/09 09:18:27;;;;;;;2.33;1.80;;;21.20;93.40;;;;;;5023841;28;20462;-61
2023/11/09 09:20:54;;;;;;;2.17;1.73;;;21.20;93.40;;;;;;5022664;28;20874;-62
2023/11/09 09:23:22;;;;;;;4.30;2.50;;;21.20;93.30;;;;;;5024206;28;21049;-63
2023/11/09 09:25:49;;;;;;;1.80;1.60;;;21.20;93.30;;;;;;5022075;28;20459;-61
2023/11/09 09:28:16;;;;;;;2.30;1.90;;;21.20;93.20;;;;;;5021768;28;20488;-60
2023/11/09 09:30:44;;;;;;;3.13;2.30;;;21.20;93.30;;;;;;5023195;28;20488;-62
2023/11/09 09:33:12;;;;;;;2.83;2.03;;;21.20;93.20;;;;;;5023039;28;20458;-60
2023/11/09 09:35:40;;;;;;;2.87;2.03;;;21.20;93.10;;;;;;5024647;28;20458;-62
2023/11/09 09:38:07;;;;;;;2.07;1.60;;;21.20;93.00;;;;;;5021501;28;20527;-61
2023/11/09 09:40:36;;;;;;;1.70;1.60;;;21.20;93.00;;;;;;5021563;28;21063;-60
2023/11/09 09:43:03;;;;;;;1.73;1.53;;;21.20;93.00;;;;;;5017201;28;20454;-62
2023/11/09 09:45:31;;;;;;;2.37;1.83;;;21.20;93.00;;;;;;5018015;28;20514;-62
2023/11/09 09:48:01;;;;;;;2.27;1.67;;;21.20;93.00;;;;;;5017398;28;20485;-62
2023/11/09 09:50:29;;;;;;;2.33;1.53;;;21.20;93.00;;;;;;5022545;28;20458;-60
2023/11/09 09:52:57;;;;;;;2.10;1.90;;;21.20;93.10;;;;;;5020355;28;20532;-56
2023/11/09 09:55:26;;;;;;;3.77;2.37;;;21.20;93.20;;;;;;5014215;28;20466;-64
2023/11/09 09:57:53;;;;;;;1.87;1.77;;;21.30;93.20;;;;;;5018935;28;20493;-64
2023/11/09 10:00:25;;;;;;;3.10;2.50;;;21.30;93.20;;;;;;5019633;28;20762;-64
2023/11/09 10:02:54;;;;;;;2.00;1.67;;;21.30;93.20;;;;;;5019352;28;20446;-64
2023/11/09 10:05:24;;;;;;;2.13;1.60;;;21.30;93.20;;;;;;5018287;28;20923;-64
2023/11/09 10:08:05;;;;;;;2.27;1.60;;;21.20;93.30;;;;;;5020907;28;20480;-64
2023/11/09 10:10:33;;;;;;;2.43;1.70;;;21.30;93.40;;;;;;5021415;28;20465;-63
2023/11/09 10:13:01;;;;;;;2.03;1.80;;;21.30;93.40;;;;;;5021113;28;20453;-63
2023/11/09 10:15:29;;;;;;;2.97;2.00;;;21.30;93.40;;;;;;5017980;28;20465;-64
2023/11/09 10:17:56;;;;;;;3.30;1.60;;;21.30;93.40;;;;;;5020081;28;20463;-63
2023/11/09 10:20:25;;;;;;;2.37;1.77;;;21.30;93.40;;;;;;5019987;28;20492;-64
2023/11/09 10:22:53;;;;;;;4.27;1.60;;;21.30;93.40;;;;;;5020732;28;20464;-64
2023/11/09 10:25:26;;;;;;;5.77;1.80;;;21.30;93.40;;;;;;5020956;28;20562;-63
2023/11/09 10:28:00;;;;;;;6.57;1.50;;;21.30;93.30;;;;;;5018707;28;20473;-63
2023/11/09 10:30:28;;;;;;;3.07;1.70;;;21.30;93.00;;;;;;5022415;28;20470;-63
2023/11/09 10:33:07;;;;;;;5.60;1.53;;;21.20;92.30;;;;;;5022463;28;20458;-58
2023/11/09 10:35:37;;;;;;;3.00;1.67;;;21.20;92.40;;;;;;5015874;28;20457;-60
2023/11/09 10:38:08;;;;;;;3.67;1.50;;;21.20;92.70;;;;;;5020139;28;20476;-61
2023/11/09 10:40:35;;;;;;;10.13;1.83;;;21.20;92.70;;;;;;5018261;28;21116;-59
2023/11/09 10:43:04;;;;;;;2.03;1.83;;;21.20;92.70;;;;;;5022202;28;20454;-61
2023/11/09 10:45:36;;;;;;;4.20;1.48;;;21.20;92.80;;;;;;5022190;28;20467;-59
2023/11/09 10:48:07;;;;;;;4.20;1.50;;;21.30;92.80;;;;;;5022315;28;20473;-59
2023/11/09 10:50:44;;;;;;;2.27;1.60;;;21.30;93.00;;;;;;5020852;28;21021;-60
2023/11/09 10:53:13;;;;;;;5.03;1.27;;;21.30;92.90;;;;;;5021731;28;20464;-59
2023/11/09 10:55:43;;;;;;;2.70;1.90;;;21.30;93.00;;;;;;5024886;28;20462;-59
2023/11/09 10:58:12;;;;;;;2.33;2.13;;;21.30;93.00;;;;;;5021082;28;22767;-60
2023/11/09 11:00:42;;;;;;;2.50;1.83;;;21.30;93.10;;;;;;5023665;28;20514;-59
2023/11/09 11:03:16;;;;;;;4.43;3.20;;;21.30;93.20;;;;;;5026806;28;20716;-58
2023/11/09 11:05:48;;;;;;;4.53;3.50;;;21.30;93.20;;;;;;5019678;28;20815;-61
2023/11/09 11:08:16;;;;;;;5.67;3.67;;;21.30;93.40;;;;;;5020472;28;20493;-58
2023/11/09 11:10:51;;;;;;;4.23;3.37;;;21.30;93.40;;;;;;5025096;28;20845;-59
2023/11/09 11:13:19;;;;;;;4.70;3.97;;;21.30;93.50;;;;;;5027474;28;20429;-59
2023/11/09 11:16:09;;;;;;;6.07;3.80;;;21.30;93.50;;;;;;5017402;28;21083;-60
2023/11/09 11:18:52;;;;;;;5.03;4.00;;;21.30;93.50;;;;;;5026574;28;20469;-59
2023/11/09 11:21:36;;;;;;;4.90;3.40;;;21.30;93.50;;;;;;5025214;28;21008;-60
2023/11/09 11:24:33;;;;;;;4.10;3.07;;;21.30;93.60;;;;;;5023146;28;20459;-58
2023/11/09 11:27:07;;;;;;;6.60;4.30;;;21.30;93.60;;;;;;5025086;28;20815;-57
2023/11/09 11:29:37;;;;;;;5.00;3.83;;;21.30;93.70;;;;;;5024070;28;20489;-60
2023/11/09 11:32:08;;;;;;;6.67;3.00;;;21.30;93.70;;;;;;5020775;28;20459;-56
2023/11/09 11:34:49;;;;;;;4.30;3.90;;;21.30;93.70;;;;;;5026696;28;20460;-59
2023/11/09 11:37:23;;;;;;;4.53;3.60;;;21.30;93.70;;;;;;5016243;28;20446;-54
2023/11/09 11:39:50;;;;;;;3.70;3.40;;;21.30;93.70;;;;;;5030180;28;20460;-59
2023/11/09 11:42:18;;;;;;;5.00;3.07;;;21.30;93.70;;;;;;5024385;28;20468;-60
2023/11/09 11:44:52;;;;;;;3.50;3.20;;;21.30;93.70;;;;;;5021929;28;20480;-58
2023/11/09 11:47:20;;;;;;;6.10;4.77;;;21.30;93.70;;;;;;5019142;28;20475;-57
2023/11/09 11:49:48;;;;;;;3.67;3.37;;;21.30;93.80;;;;;;5016476;28;20917;-61
2023/11/09 11:52:18;;;;;;;12.33;3.70;;;;;;;;;;5021274;28;20462;-54
2023/11/09 11:54:46;;;;;;;4.20;3.28;;;21.40;93.80;;;;;;5022504;28;20653;-55
2023/11/09 11:57:14;;;;;;;3.70;3.40;;;21.40;93.80;;;;;;5024857;28;20202;-50
2023/11/09 11:59:42;;;;;;;6.37;3.67;;;21.40;93.70;;;;;;5021937;28;20470;-53
2023/11/09 12:02:12;;;;;;;8.77;3.37;;;21.50;93.80;;;;;;5018709;28;20564;-61
2023/11/09 12:04:47;;;;;;;5.57;3.67;;;21.50;93.80;;;;;;5019541;28;21074;-56
2023/11/09 12:07:19;;;;;;;6.77;3.70;;;21.50;93.90;;;;;;5016390;28;20495;-57
2023/11/09 12:09:48;;;;;;;4.07;3.27;;;21.50;94.00;;;;;;5023207;28;20977;-59
2023/11/09 12:12:15;;;;;;;5.23;3.43;;;21.60;94.10;;;;;;5022524;28;20783;-54
2023/11/09 12:14:43;;;;;;;4.10;3.10;;;21.50;94.50;;;;;;5023185;28;21222;-50
2023/11/09 12:17:10;;;;;;;8.83;3.60;;;21.60;94.20;;;;;;5025183;28;20996;-53
2023/11/09 12:19:37;;;;;;;8.90;3.83;;;21.60;94.20;;;;;;5023841;28;20575;-55
2023/11/09 12:22:07;;;;;;;5.80;3.33;;;21.60;94.20;;;;;;5020479;28;20462;-53
2023/11/09 12:24:35;;;;;;;4.60;3.47;;;21.60;94.00;;;;;;5024322;28;20462;-53
2023/11/09 12:27:08;;;;;;;5.83;4.57;;;21.60;94.10;;;;;;5022789;28;20611;-51
2023/11/09 12:29:41;;;;;;;5.40;4.20;;;21.60;94.20;;;;;;5027929;28;20454;-52
2023/11/09 12:32:09;;;;;;;6.43;3.77;;;21.60;94.10;;;;;;5027824;28;20501;-53
2023/11/09 12:34:39;;;;;;;5.70;3.70;;;21.60;94.10;;;;;;5027081;28;20456;-55
2023/11/09 12:37:11;;;;;;;3.73;3.43;;;21.60;94.10;;;;;;5025848;28;20466;-52
2023/11/09 12:39:40;;;;;;;8.47;3.00;;;21.60;94.00;;;;;;5025055;28;20805;-54
2023/11/09 12:42:11;;;;;;;4.00;3.10;;;21.70;94.10;;;;;;5022512;28;20628;-52
2023/11/09 12:44:42;;;;;;;3.87;2.90;;;21.70;94.00;;;;;;5026126;28;20536;-52
2023/11/09 12:47:17;;;;;;;5.80;3.50;;;21.70;93.90;;;;;;5027525;28;20480;-51
2023/11/09 12:49:45;;;;;;;6.00;3.40;;;21.70;93.90;;;;;;5026455;28;20867;-54
2023/11/09 12:52:16;;;;;;;5.30;4.20;;;21.70;93.90;;;;;;5024794;28;20525;-53
2023/11/09 12:54:45;;;;;;;4.17;2.93;;;21.70;93.90;;;;;;5025889;28;20466;-53
2023/11/09 12:57:17;;;;;;;4.67;3.27;;;21.70;93.90;;;;;;5025865;28;20631;-55
2023/11/09 12:59:45;;;;;;;3.90;3.50;;;21.70;93.80;;;;;;5028421;28;20545;-53